OAL2ES ESMS-ESGG
Flight info
| Callsign | OAL2ES |
|---|---|
| Flight time | 0h 29m |
| Altitude | 18000 |
| Route | ERNOV N15 LASLI L997 RISMA |
| Aircraft | B738/M-SDE2E3FGHIRWXY/LB1 |
Departure
| Time | 2026-04-26 08:08 |
|---|---|
| Airport | Malmö Sturup Airport (ESMS) |
Arrival
| Time | 2026-04-26 08:37 |
|---|---|
| Airport | Göteborg Landvetter Airport (ESGG) |
| Time | Latitude | Longitude | Altitude | Speed | Heading |
|---|---|---|---|---|---|
| 2026-04-26 07:51 | 55.54018 | 13.36877 | 231 ft | 0 kts | 354° |
| 2026-04-26 07:59 | 55.54015 | 13.36877 | 230 ft | 2 kts | 354° |
| 2026-04-26 08:00 | 55.53999 | 13.36880 | 203 ft | 2 kts | 356° |
| 2026-04-26 08:00 | 55.53983 | 13.36881 | 230 ft | 2 kts | 359° |
| 2026-04-26 08:00 | 55.53966 | 13.36880 | 230 ft | 2 kts | 7° |
| 2026-04-26 08:00 | 55.53950 | 13.36873 | 230 ft | 2 kts | 37° |
| 2026-04-26 08:01 | 55.53943 | 13.36853 | 232 ft | 1 kts | 83° |
| 2026-04-26 08:01 | 55.53943 | 13.36850 | 231 ft | 0 kts | 84° |
| 2026-04-26 08:02 | 55.53943 | 13.36856 | 232 ft | 3 kts | 83° |
| 2026-04-26 08:03 | 55.53951 | 13.36969 | 232 ft | 16 kts | 83° |
| 2026-04-26 08:03 | 55.53963 | 13.37190 | 230 ft | 16 kts | 98° |
| 2026-04-26 08:03 | 55.53873 | 13.37278 | 232 ft | 16 kts | 173° |
| 2026-04-26 08:03 | 55.53749 | 13.37302 | 230 ft | 20 kts | 174° |
| 2026-04-26 08:04 | 55.53600 | 13.37331 | 232 ft | 22 kts | 173° |
| 2026-04-26 08:04 | 55.53453 | 13.37363 | 230 ft | 21 kts | 173° |
| 2026-04-26 08:04 | 55.53295 | 13.37396 | 230 ft | 25 kts | 173° |
| 2026-04-26 08:04 | 55.53117 | 13.37433 | 231 ft | 25 kts | 173° |
| 2026-04-26 08:05 | 55.52948 | 13.37466 | 232 ft | 24 kts | 174° |
| 2026-04-26 08:05 | 55.52789 | 13.37497 | 230 ft | 23 kts | 174° |
| 2026-04-26 08:05 | 55.52636 | 13.37529 | 230 ft | 22 kts | 173° |
| 2026-04-26 08:05 | 55.52487 | 13.37565 | 232 ft | 21 kts | 166° |
| 2026-04-26 08:06 | 55.52375 | 13.37680 | 231 ft | 10 kts | 143° |
| 2026-04-26 08:06 | 55.52364 | 13.37694 | 231 ft | 0 kts | 143° |
| 2026-04-26 08:06 | 55.52358 | 13.37701 | 231 ft | 5 kts | 143° |
| 2026-04-26 08:07 | 55.52317 | 13.37824 | 236 ft | 17 kts | 75° |
| 2026-04-26 08:07 | 55.52419 | 13.37872 | 238 ft | 18 kts | 353° |
| 2026-04-26 08:07 | 55.52687 | 13.37815 | 237 ft | 77 kts | 353° |
| 2026-04-26 08:07 | 55.53502 | 13.37625 | 335 ft | 148 kts | 349° |
| 2026-04-26 08:08 | 55.54564 | 13.37406 | 1277 ft | 158 kts | 353° |
| 2026-04-26 08:08 | 55.55672 | 13.37223 | 2447 ft | 163 kts | 353° |
| 2026-04-26 08:08 | 55.56881 | 13.37032 | 2981 ft | 190 kts | 354° |
| 2026-04-26 08:08 | 55.58300 | 13.36719 | 3328 ft | 215 kts | 350° |
| 2026-04-26 08:09 | 55.59791 | 13.36011 | 3821 ft | 235 kts | 340° |
| 2026-04-26 08:09 | 55.61396 | 13.34846 | 4195 ft | 263 kts | 338° |
| 2026-04-26 08:09 | 55.63135 | 13.33533 | 4938 ft | 276 kts | 338° |
| 2026-04-26 08:09 | 55.64900 | 13.32251 | 6173 ft | 272 kts | 339° |
| 2026-04-26 08:10 | 55.66634 | 13.31026 | 7489 ft | 262 kts | 339° |
| 2026-04-26 08:10 | 55.68285 | 13.29863 | 8904 ft | 249 kts | 339° |
| 2026-04-26 08:10 | 55.69882 | 13.28740 | 10107 ft | 245 kts | 339° |
| 2026-04-26 08:10 | 55.71512 | 13.27757 | 10871 ft | 255 kts | 345° |
| 2026-04-26 08:11 | 55.73338 | 13.27052 | 11119 ft | 282 kts | 348° |
| 2026-04-26 08:11 | 55.75349 | 13.26361 | 11335 ft | 307 kts | 348° |
| 2026-04-26 08:11 | 55.77520 | 13.25557 | 11528 ft | 330 kts | 343° |
| 2026-04-26 08:11 | 55.79684 | 13.23978 | 12038 ft | 341 kts | 333° |
| 2026-04-26 08:12 | 55.81780 | 13.21943 | 12819 ft | 344 kts | 332° |
| 2026-04-26 08:12 | 55.83872 | 13.19878 | 13733 ft | 344 kts | 332° |
| 2026-04-26 08:12 | 55.85943 | 13.17827 | 14523 ft | 345 kts | 332° |
| 2026-04-26 08:12 | 55.88047 | 13.15746 | 15280 ft | 347 kts | 332° |
| 2026-04-26 08:13 | 55.90161 | 13.13660 | 16019 ft | 348 kts | 332° |
| 2026-04-26 08:13 | 55.92292 | 13.11559 | 16710 ft | 351 kts | 332° |
| 2026-04-26 08:13 | 55.94438 | 13.09446 | 17299 ft | 355 kts | 332° |
| 2026-04-26 08:13 | 55.96617 | 13.07299 | 17823 ft | 361 kts | 331° |
| 2026-04-26 08:14 | 55.98835 | 13.05113 | 18240 ft | 365 kts | 331° |
| 2026-04-26 08:14 | 56.01051 | 13.02926 | 18261 ft | 363 kts | 331° |
| 2026-04-26 08:14 | 56.03268 | 13.00736 | 18276 ft | 365 kts | 331° |
| 2026-04-26 08:14 | 56.05488 | 12.98541 | 18273 ft | 364 kts | 331° |
| 2026-04-26 08:15 | 56.07707 | 12.96344 | 18276 ft | 364 kts | 331° |
| 2026-04-26 08:15 | 56.09895 | 12.94175 | 18272 ft | 364 kts | 331° |
| 2026-04-26 08:15 | 56.12113 | 12.91974 | 18272 ft | 364 kts | 331° |
| 2026-04-26 08:15 | 56.14329 | 12.89771 | 18273 ft | 364 kts | 331° |
| 2026-04-26 08:16 | 56.16550 | 12.87561 | 18271 ft | 364 kts | 331° |
| 2026-04-26 08:16 | 56.18771 | 12.85348 | 18292 ft | 364 kts | 331° |
| 2026-04-26 08:16 | 56.20986 | 12.83138 | 18287 ft | 364 kts | 331° |
| 2026-04-26 08:16 | 56.23198 | 12.80928 | 18279 ft | 364 kts | 331° |
| 2026-04-26 08:17 | 56.25407 | 12.78718 | 18261 ft | 363 kts | 331° |
| 2026-04-26 08:17 | 56.27612 | 12.76508 | 18262 ft | 363 kts | 331° |
| 2026-04-26 08:17 | 56.29819 | 12.74294 | 18267 ft | 362 kts | 331° |
| 2026-04-26 08:17 | 56.32020 | 12.72084 | 18267 ft | 362 kts | 331° |
| 2026-04-26 08:18 | 56.34221 | 12.69871 | 18251 ft | 362 kts | 331° |
| 2026-04-26 08:18 | 56.36427 | 12.67648 | 18262 ft | 364 kts | 331° |
| 2026-04-26 08:18 | 56.38645 | 12.65411 | 18271 ft | 366 kts | 331° |
| 2026-04-26 08:18 | 56.40873 | 12.63162 | 18274 ft | 367 kts | 330° |
| 2026-04-26 08:19 | 56.43082 | 12.60927 | 18275 ft | 369 kts | 330° |
| 2026-04-26 08:19 | 56.45320 | 12.58661 | 18268 ft | 369 kts | 330° |
| 2026-04-26 08:19 | 56.47559 | 12.56391 | 18298 ft | 369 kts | 330° |
| 2026-04-26 08:19 | 56.49795 | 12.54121 | 18279 ft | 368 kts | 331° |
| 2026-04-26 08:20 | 56.52029 | 12.51849 | 18281 ft | 367 kts | 331° |
| 2026-04-26 08:20 | 56.54250 | 12.49588 | 18271 ft | 366 kts | 331° |
| 2026-04-26 08:20 | 56.56464 | 12.47330 | 18270 ft | 365 kts | 331° |
| 2026-04-26 08:20 | 56.58673 | 12.45075 | 18273 ft | 364 kts | 331° |
| 2026-04-26 08:21 | 56.60900 | 12.42799 | 17788 ft | 368 kts | 331° |
| 2026-04-26 08:21 | 56.63090 | 12.40557 | 17173 ft | 363 kts | 331° |
| 2026-04-26 08:21 | 56.65267 | 12.38324 | 16550 ft | 357 kts | 331° |
| 2026-04-26 08:21 | 56.67422 | 12.36112 | 15958 ft | 355 kts | 331° |
| 2026-04-26 08:22 | 56.69566 | 12.33909 | 15358 ft | 353 kts | 331° |
| 2026-04-26 08:22 | 56.71706 | 12.31706 | 14764 ft | 352 kts | 331° |
| 2026-04-26 08:22 | 56.73832 | 12.29516 | 14163 ft | 352 kts | 331° |
| 2026-04-26 08:22 | 56.75961 | 12.27319 | 13599 ft | 351 kts | 331° |
| 2026-04-26 08:23 | 56.78073 | 12.25136 | 13153 ft | 348 kts | 331° |
| 2026-04-26 08:23 | 56.80170 | 12.22967 | 12689 ft | 345 kts | 331° |
| 2026-04-26 08:23 | 56.82259 | 12.20803 | 12218 ft | 344 kts | 331° |
| 2026-04-26 08:23 | 56.84336 | 12.18648 | 11751 ft | 343 kts | 331° |
| 2026-04-26 08:24 | 56.86411 | 12.16494 | 11303 ft | 343 kts | 330° |
| 2026-04-26 08:24 | 56.88491 | 12.14331 | 10849 ft | 343 kts | 330° |
| 2026-04-26 08:24 | 56.90567 | 12.12169 | 10428 ft | 343 kts | 330° |
| 2026-04-26 08:24 | 56.92641 | 12.10006 | 10328 ft | 339 kts | 330° |
| 2026-04-26 08:25 | 56.94618 | 12.07941 | 10287 ft | 323 kts | 330° |
| 2026-04-26 08:25 | 56.96545 | 12.05927 | 10280 ft | 309 kts | 330° |
| 2026-04-26 08:25 | 56.98402 | 12.03984 | 10290 ft | 308 kts | 330° |
| 2026-04-26 08:25 | 57.00239 | 12.02061 | 10293 ft | 307 kts | 330° |
| 2026-04-26 08:26 | 57.02091 | 12.00118 | 10289 ft | 307 kts | 330° |
| 2026-04-26 08:26 | 57.04051 | 11.98621 | 10279 ft | 307 kts | 347° |
| 2026-04-26 08:26 | 57.06181 | 11.98302 | 10282 ft | 310 kts | 360° |
| 2026-04-26 08:26 | 57.08352 | 11.98711 | 9744 ft | 318 kts | 5° |
| 2026-04-26 08:27 | 57.10538 | 11.99346 | 9154 ft | 317 kts | 6° |
| 2026-04-26 08:27 | 57.12718 | 11.99971 | 8562 ft | 316 kts | 6° |
| 2026-04-26 08:27 | 57.14887 | 12.00549 | 7984 ft | 314 kts | 6° |
| 2026-04-26 08:27 | 57.17050 | 12.01101 | 7438 ft | 313 kts | 6° |
| 2026-04-26 08:28 | 57.19193 | 12.01639 | 6989 ft | 309 kts | 6° |
| 2026-04-26 08:28 | 57.21313 | 12.02166 | 6516 ft | 306 kts | 6° |
| 2026-04-26 08:28 | 57.23418 | 12.02690 | 6025 ft | 303 kts | 6° |
| 2026-04-26 08:28 | 57.25500 | 12.03209 | 5552 ft | 301 kts | 6° |
| 2026-04-26 08:29 | 57.27564 | 12.03724 | 5075 ft | 299 kts | 6° |
| 2026-04-26 08:29 | 57.29622 | 12.04239 | 4590 ft | 297 kts | 6° |
| 2026-04-26 08:29 | 57.31670 | 12.04751 | 4109 ft | 295 kts | 7° |
| 2026-04-26 08:29 | 57.33703 | 12.05261 | 3637 ft | 294 kts | 7° |
| 2026-04-26 08:30 | 57.35725 | 12.05768 | 3176 ft | 292 kts | 7° |
| 2026-04-26 08:30 | 57.37675 | 12.06259 | 3072 ft | 280 kts | 7° |
| 2026-04-26 08:30 | 57.39560 | 12.06735 | 3030 ft | 266 kts | 7° |
| 2026-04-26 08:30 | 57.41348 | 12.07184 | 3020 ft | 252 kts | 7° |
| 2026-04-26 08:31 | 57.43041 | 12.07611 | 3012 ft | 239 kts | 7° |
| 2026-04-26 08:31 | 57.44612 | 12.08283 | 3031 ft | 226 kts | 20° |
| 2026-04-26 08:31 | 57.46009 | 12.09441 | 3047 ft | 213 kts | 25° |
| 2026-04-26 08:31 | 57.47287 | 12.10620 | 3052 ft | 197 kts | 25° |
| 2026-04-26 08:32 | 57.48470 | 12.11715 | 3034 ft | 182 kts | 25° |
| 2026-04-26 08:32 | 57.49585 | 12.12741 | 3032 ft | 179 kts | 25° |
| 2026-04-26 08:32 | 57.50709 | 12.13767 | 3054 ft | 181 kts | 25° |
| 2026-04-26 08:32 | 57.51812 | 12.14775 | 3009 ft | 167 kts | 25° |
| 2026-04-26 08:33 | 57.52480 | 12.15387 | 3024 ft | 156 kts | 25° |
| 2026-04-26 08:33 | 57.53453 | 12.16274 | 3074 ft | 155 kts | 25° |
| 2026-04-26 08:33 | 57.54424 | 12.17164 | 2937 ft | 154 kts | 25° |
| 2026-04-26 08:33 | 57.55333 | 12.17991 | 2736 ft | 138 kts | 25° |
| 2026-04-26 08:34 | 57.56171 | 12.18754 | 2557 ft | 133 kts | 24° |
| 2026-04-26 08:34 | 57.56994 | 12.19504 | 2373 ft | 133 kts | 24° |
| 2026-04-26 08:34 | 57.57832 | 12.20262 | 2236 ft | 134 kts | 24° |
| 2026-04-26 08:34 | 57.58681 | 12.21001 | 2072 ft | 135 kts | 24° |
| 2026-04-26 08:35 | 57.59500 | 12.21837 | 1801 ft | 133 kts | 28° |
| 2026-04-26 08:35 | 57.60557 | 12.22871 | 1516 ft | 129 kts | 21° |
| 2026-04-26 08:35 | 57.61103 | 12.23309 | 1391 ft | 125 kts | 20° |
| 2026-04-26 08:35 | 57.61890 | 12.23924 | 1259 ft | 123 kts | 21° |
| 2026-04-26 08:36 | 57.62668 | 12.24598 | 1108 ft | 125 kts | 25° |
| 2026-04-26 08:36 | 57.63450 | 12.25351 | 922 ft | 127 kts | 26° |
| 2026-04-26 08:36 | 57.64234 | 12.26121 | 739 ft | 127 kts | 23° |
| 2026-04-26 08:36 | 57.65017 | 12.26821 | 553 ft | 122 kts | 24° |
| 2026-04-26 08:37 | 57.65724 | 12.27459 | 502 ft | 97 kts | 26° |
| 2026-04-26 08:37 | 57.66199 | 12.27895 | 508 ft | 61 kts | 27° |
| 2026-04-26 08:37 | 57.66529 | 12.28208 | 511 ft | 36 kts | 31° |
| 2026-04-26 08:37 | 57.66695 | 12.28520 | 511 ft | 21 kts | 55° |
| 2026-04-26 08:38 | 57.66722 | 12.28591 | 511 ft | 6 kts | 54° |
| 2026-04-26 08:38 | 57.66746 | 12.28653 | 511 ft | 6 kts | 54° |
| 2026-04-26 08:38 | 57.66770 | 12.28715 | 512 ft | 6 kts | 54° |
| 2026-04-26 08:38 | 57.66797 | 12.28780 | 512 ft | 7 kts | 49° |
| 2026-04-26 08:39 | 57.66830 | 12.28877 | 513 ft | 10 kts | 99° |
| 2026-04-26 08:39 | 57.66821 | 12.28922 | 515 ft | 0 kts | 109° |
| 2026-04-26 08:39 | 57.66818 | 12.28937 | 515 ft | 6 kts | 113° |
| 2026-04-26 08:40 | 57.66779 | 12.29091 | 515 ft | 18 kts | 117° |
| 2026-04-26 08:40 | 57.66733 | 12.29245 | 515 ft | 8 kts | 116° |
| 2026-04-26 08:40 | 57.66729 | 12.29262 | 515 ft | 0 kts | 116° |